sensor_id;sensor_type;location;lat;lon;timestamp;pressure;altitude;pressure_sealevel;temperature;humidity
10464;BME280;5279;42.048;24.638;2023-03-22T00:01:45;97066.38;;;12.29;100.00
10464;BME280;5279;42.048;24.638;2023-03-22T00:04:12;97072.50;;;12.29;100.00
10464;BME280;5279;42.048;24.638;2023-03-22T00:06:41;97069.69;;;12.31;100.00
10464;BME280;5279;42.048;24.638;2023-03-22T00:09:08;97063.25;;;12.09;100.00
10464;BME280;5279;42.048;24.638;2023-03-22T00:11:35;97063.06;;;12.11;100.00
10464;BME280;5279;42.048;24.638;2023-03-22T00:14:02;97061.75;;;11.90;100.00
10464;BME280;5279;42.048;24.638;2023-03-22T00:16:29;97062.94;;;11.88;100.00
10464;BME280;5279;42.048;24.638;2023-03-22T00:18:56;97056.75;;;11.71;100.00
10464;BME280;5279;42.048;24.638;2023-03-22T00:21:23;97063.69;;;11.56;100.00
10464;BME280;5279;42.048;24.638;2023-03-22T00:23:51;97051.06;;;11.50;100.00
10464;BME280;5279;42.048;24.638;2023-03-22T00:26:18;97051.41;;;11.55;100.00
10464;BME280;5279;42.048;24.638;2023-03-22T00:28:45;97054.72;;;11.65;100.00
10464;BME280;5279;42.048;24.638;2023-03-22T00:31:12;97055.94;;;11.71;100.00
10464;BME280;5279;42.048;24.638;2023-03-22T00:33:38;97048.13;;;11.77;100.00
10464;BME280;5279;42.048;24.638;2023-03-22T00:36:08;97059.09;;;11.82;100.00
10464;BME280;5279;42.048;24.638;2023-03-22T00:38:37;97053.13;;;11.88;100.00
10464;BME280;5279;42.048;24.638;2023-03-22T00:41:10;97051.97;;;11.91;100.00
10464;BME280;5279;42.048;24.638;2023-03-22T00:43:38;97050.94;;;11.92;100.00
10464;BME280;5279;42.048;24.638;2023-03-22T00:46:05;97055.44;;;11.83;100.00
10464;BME280;5279;42.048;24.638;2023-03-22T00:48:32;97054.13;;;11.79;100.00
10464;BME280;5279;42.048;24.638;2023-03-22T00:51:00;97040.19;;;11.77;100.00
10464;BME280;5279;42.048;24.638;2023-03-22T00:53:27;97044.19;;;11.73;100.00
10464;BME280;5279;42.048;24.638;2023-03-22T00:55:54;97058.44;;;11.72;100.00
10464;BME280;5279;42.048;24.638;2023-03-22T00:58:23;97048.13;;;11.69;100.00
10464;BME280;5279;42.048;24.638;2023-03-22T01:00:50;97045.81;;;11.74;100.00
10464;BME280;5279;42.048;24.638;2023-03-22T01:03:17;97036.53;;;11.78;100.00
10464;BME280;5279;42.048;24.638;2023-03-22T01:05:46;97034.38;;;11.82;100.00
10464;BME280;5279;42.048;24.638;2023-03-22T01:08:15;97042.50;;;11.80;100.00
10464;BME280;5279;42.048;24.638;2023-03-22T01:10:42;97035.69;;;11.78;100.00
10464;BME280;5279;42.048;24.638;2023-03-22T01:13:11;97039.53;;;11.75;100.00
10464;BME280;5279;42.048;24.638;2023-03-22T01:15:39;97034.88;;;11.77;100.00
10464;BME280;5279;42.048;24.638;2023-03-22T01:18:07;97045.31;;;11.71;100.00
10464;BME280;5279;42.048;24.638;2023-03-22T01:20:34;97042.13;;;11.59;100.00
10464;BME280;5279;42.048;24.638;2023-03-22T01:23:02;97051.41;;;11.39;100.00
10464;BME280;5279;42.048;24.638;2023-03-22T01:25:29;97042.75;;;11.37;100.00
10464;BME280;5279;42.048;24.638;2023-03-22T01:27:56;97043.44;;;11.47;100.00
10464;BME280;5279;42.048;24.638;2023-03-22T01:30:23;97035.47;;;11.55;100.00
10464;BME280;5279;42.048;24.638;2023-03-22T01:32:52;97042.13;;;11.59;100.00
10464;BME280;5279;42.048;24.638;2023-03-22T01:35:19;97041.63;;;11.56;100.00
10464;BME280;5279;42.048;24.638;2023-03-22T01:37:46;97035.00;;;11.60;100.00
10464;BME280;5279;42.048;24.638;2023-03-22T01:40:13;97031.50;;;11.59;100.00
10464;BME280;5279;42.048;24.638;2023-03-22T01:42:40;97031.34;;;11.61;100.00
10464;BME280;5279;42.048;24.638;2023-03-22T01:45:33;97030.84;;;11.65;100.00
10464;BME280;5279;42.048;24.638;2023-03-22T01:48:04;97029.22;;;11.64;100.00
10464;BME280;5279;42.048;24.638;2023-03-22T01:50:36;97041.47;;;11.65;100.00
10464;BME280;5279;42.048;24.638;2023-03-22T01:53:04;97031.84;;;11.48;100.00
10464;BME280;5279;42.048;24.638;2023-03-22T01:55:34;97028.03;;;11.50;100.00
10464;BME280;5279;42.048;24.638;2023-03-22T01:58:02;97024.88;;;11.55;100.00
10464;BME280;5279;42.048;24.638;2023-03-22T02:00:29;97035.00;;;11.51;100.00
10464;BME280;5279;42.048;24.638;2023-03-22T02:02:56;97033.16;;;11.44;100.00
10464;BME280;5279;42.048;24.638;2023-03-22T02:05:24;97038.94;;;11.31;100.00
10464;BME280;5279;42.048;24.638;2023-03-22T02:07:52;97038.09;;;11.31;100.00
10464;BME280;5279;42.048;24.638;2023-03-22T02:10:21;97034.41;;;11.16;100.00
10464;BME280;5279;42.048;24.638;2023-03-22T02:12:58;97025.28;;;11.02;100.00
10464;BME280;5279;42.048;24.638;2023-03-22T02:15:31;97032.00;;;10.88;100.00
10464;BME280;5279;42.048;24.638;2023-03-22T02:18:14;97036.31;;;10.81;100.00
10464;BME280;5279;42.048;24.638;2023-03-22T02:21:40;97034.44;;;10.74;100.00
10464;BME280;5279;42.048;24.638;2023-03-22T02:27:34;97038.09;;;10.73;100.00
10464;BME280;5279;42.048;24.638;2023-03-22T02:30:28;97036.97;;;10.83;100.00
10464;BME280;5279;42.048;24.638;2023-03-22T02:33:35;97039.63;;;10.91;100.00
10464;BME280;5279;42.048;24.638;2023-03-22T02:36:24;97045.97;;;10.98;100.00
10464;BME280;5279;42.048;24.638;2023-03-22T02:39:28;97046.78;;;10.91;100.00
10464;BME280;5279;42.048;24.638;2023-03-22T02:42:11;97050.63;;;10.96;100.00
10464;BME280;5279;42.048;24.638;2023-03-22T02:44:53;97048.81;;;10.97;100.00
10464;BME280;5279;42.048;24.638;2023-03-22T02:47:33;97051.56;;;10.87;100.00
10464;BME280;5279;42.048;24.638;2023-03-22T02:50:08;97057.84;;;10.86;100.00
10464;BME280;5279;42.048;24.638;2023-03-22T02:52:38;97047.88;;;10.80;100.00
10464;BME280;5279;42.048;24.638;2023-03-22T02:55:12;97055.84;;;10.80;100.00
10464;BME280;5279;42.048;24.638;2023-03-22T02:57:45;97052.16;;;10.73;100.00
10464;BME280;5279;42.048;24.638;2023-03-22T03:00:15;97055.44;;;10.67;100.00
10464;BME280;5279;42.048;24.638;2023-03-22T03:02:48;97056.03;;;10.53;100.00
10464;BME280;5279;42.048;24.638;2023-03-22T03:05:17;97058.59;;;10.63;100.00
10464;BME280;5279;42.048;24.638;2023-03-22T03:07:48;97058.72;;;10.61;100.00
10464;BME280;5279;42.048;24.638;2023-03-22T03:10:19;97065.69;;;10.62;100.00
10464;BME280;5279;42.048;24.638;2023-03-22T03:12:47;97074.47;;;10.63;100.00
10464;BME280;5279;42.048;24.638;2023-03-22T03:15:17;97072.28;;;10.58;100.00
10464;BME280;5279;42.048;24.638;2023-03-22T03:17:55;97073.22;;;10.49;100.00
10464;BME280;5279;42.048;24.638;2023-03-22T03:20:35;97076.16;;;10.38;100.00
10464;BME280;5279;42.048;24.638;2023-03-22T03:23:13;97079.94;;;10.35;100.00
10464;BME280;5279;42.048;24.638;2023-03-22T03:25:49;97083.13;;;10.39;100.00
10464;BME280;5279;42.048;24.638;2023-03-22T03:28:24;97075.31;;;10.37;100.00
10464;BME280;5279;42.048;24.638;2023-03-22T03:30:58;97088.09;;;10.42;100.00
10464;BME280;5279;42.048;24.638;2023-03-22T03:33:26;97085.47;;;10.42;100.00
10464;BME280;5279;42.048;24.638;2023-03-22T03:35:59;97082.50;;;10.45;100.00
10464;BME280;5279;42.048;24.638;2023-03-22T03:38:29;97087.16;;;10.51;100.00
10464;BME280;5279;42.048;24.638;2023-03-22T03:41:02;97078.53;;;10.49;100.00
10464;BME280;5279;42.048;24.638;2023-03-22T03:43:30;97082.84;;;10.50;100.00
10464;BME280;5279;42.048;24.638;2023-03-22T03:45:57;97088.16;;;10.50;100.00
10464;BME280;5279;42.048;24.638;2023-03-22T03:48:28;97088.47;;;10.47;100.00
10464;BME280;5279;42.048;24.638;2023-03-22T03:50:56;97081.44;;;10.38;100.00
10464;BME280;5279;42.048;24.638;2023-03-22T03:53:24;97079.47;;;10.40;100.00
10464;BME280;5279;42.048;24.638;2023-03-22T03:55:51;97079.16;;;10.43;100.00
10464;BME280;5279;42.048;24.638;2023-03-22T03:58:20;97090.06;;;10.40;100.00
10464;BME280;5279;42.048;24.638;2023-03-22T04:00:47;97084.75;;;10.40;100.00
10464;BME280;5279;42.048;24.638;2023-03-22T04:03:14;97092.72;;;10.40;100.00
10464;BME280;5279;42.048;24.638;2023-03-22T04:05:41;97093.53;;;10.40;100.00
10464;BME280;5279;42.048;24.638;2023-03-22T04:08:09;97097.03;;;10.41;100.00
10464;BME280;5279;42.048;24.638;2023-03-22T04:10:35;97104.94;;;10.33;100.00
10464;BME280;5279;42.048;24.638;2023-03-22T04:13:02;97093.63;;;10.31;100.00
10464;BME280;5279;42.048;24.638;2023-03-22T04:15:31;97095.94;;;10.26;100.00
10464;BME280;5279;42.048;24.638;2023-03-22T04:17:58;97101.22;;;10.26;100.00
10464;BME280;5279;42.048;24.638;2023-03-22T04:20:25;97110.00;;;10.26;100.00
10464;BME280;5279;42.048;24.638;2023-03-22T04:22:52;97113.50;;;10.27;100.00
10464;BME280;5279;42.048;24.638;2023-03-22T04:25:19;97115.75;;;10.22;100.00
10464;BME280;5279;42.048;24.638;2023-03-22T04:27:47;97113.41;;;10.19;100.00
10464;BME280;5279;42.048;24.638;2023-03-22T04:30:15;97113.41;;;10.19;100.00
10464;BME280;5279;42.048;24.638;2023-03-22T04:32:45;97120.69;;;10.17;100.00
10464;BME280;5279;42.048;24.638;2023-03-22T04:35:13;97118.19;;;10.15;100.00
10464;BME280;5279;42.048;24.638;2023-03-22T04:37:40;97122.06;;;10.21;100.00
10464;BME280;5279;42.048;24.638;2023-03-22T04:40:10;97119.28;;;10.13;100.00
10464;BME280;5279;42.048;24.638;2023-03-22T04:42:41;97116.94;;;10.10;100.00
10464;BME280;5279;42.048;24.638;2023-03-22T04:45:09;97122.25;;;10.10;100.00
10464;BME280;5279;42.048;24.638;2023-03-22T04:47:36;97116.41;;;10.06;100.00
10464;BME280;5279;42.048;24.638;2023-03-22T04:50:06;97121.13;;;9.59;100.00
10464;BME280;5279;42.048;24.638;2023-03-22T04:52:36;97130.13;;;9.66;100.00
10464;BME280;5279;42.048;24.638;2023-03-22T04:55:03;97135.19;;;9.77;100.00
10464;BME280;5279;42.048;24.638;2023-03-22T04:57:30;97131.59;;;9.78;100.00
10464;BME280;5279;42.048;24.638;2023-03-22T04:59:59;97137.06;;;9.85;100.00
10464;BME280;5279;42.048;24.638;2023-03-22T05:02:26;97139.22;;;9.81;100.00
10464;BME280;5279;42.048;24.638;2023-03-22T05:04:53;97142.00;;;9.80;100.00
10464;BME280;5279;42.048;24.638;2023-03-22T05:07:21;97139.28;;;9.89;100.00
10464;BME280;5279;42.048;24.638;2023-03-22T05:09:48;97148.28;;;9.97;100.00
10464;BME280;5279;42.048;24.638;2023-03-22T05:12:15;97148.34;;;10.05;100.00
10464;BME280;5279;42.048;24.638;2023-03-22T05:14:42;97156.34;;;10.13;100.00
10464;BME280;5279;42.048;24.638;2023-03-22T05:17:09;97153.59;;;10.14;100.00
10464;BME280;5279;42.048;24.638;2023-03-22T05:19:36;97149.84;;;10.25;100.00
10464;BME280;5279;42.048;24.638;2023-03-22T05:22:03;97153.44;;;10.33;100.00
10464;BME280;5279;42.048;24.638;2023-03-22T05:24:31;97156.56;;;10.37;100.00
10464;BME280;5279;42.048;24.638;2023-03-22T05:26:58;97161.97;;;10.45;100.00
10464;BME280;5279;42.048;24.638;2023-03-22T05:29:28;97171.19;;;10.41;100.00
10464;BME280;5279;42.048;24.638;2023-03-22T05:32:01;97173.69;;;10.43;100.00
10464;BME280;5279;42.048;24.638;2023-03-22T05:34:28;97168.59;;;10.49;100.00
10464;BME280;5279;42.048;24.638;2023-03-22T05:37:00;97176.38;;;10.51;100.00
10464;BME280;5279;42.048;24.638;2023-03-22T05:39:36;97177.44;;;10.58;100.00
10464;BME280;5279;42.048;24.638;2023-03-22T05:42:03;97175.69;;;10.66;100.00
10464;BME280;5279;42.048;24.638;2023-03-22T05:44:30;97182.31;;;10.70;100.00
10464;BME280;5279;42.048;24.638;2023-03-22T05:46:57;97183.25;;;10.61;100.00
10464;BME280;5279;42.048;24.638;2023-03-22T05:49:23;97188.94;;;10.66;100.00
10464;BME280;5279;42.048;24.638;2023-03-22T05:51:51;97192.59;;;10.73;100.00
10464;BME280;5279;42.048;24.638;2023-03-22T05:54:19;97193.28;;;10.75;100.00
10464;BME280;5279;42.048;24.638;2023-03-22T05:56:47;97191.00;;;10.80;100.00
10464;BME280;5279;42.048;24.638;2023-03-22T05:59:14;97198.31;;;10.86;100.00
10464;BME280;5279;42.048;24.638;2023-03-22T06:01:41;97202.66;;;10.87;100.00
10464;BME280;5279;42.048;24.638;2023-03-22T06:04:07;97205.66;;;10.92;100.00
10464;BME280;5279;42.048;24.638;2023-03-22T06:06:35;97207.31;;;10.93;100.00
10464;BME280;5279;42.048;24.638;2023-03-22T06:09:02;97209.34;;;11.00;100.00
10464;BME280;5279;42.048;24.638;2023-03-22T06:11:30;97210.63;;;10.95;100.00
10464;BME280;5279;42.048;24.638;2023-03-22T06:14:01;97214.66;;;11.00;100.00
10464;BME280;5279;42.048;24.638;2023-03-22T06:16:28;97215.97;;;11.04;100.00
10464;BME280;5279;42.048;24.638;2023-03-22T06:18:55;97221.81;;;11.07;100.00
10464;BME280;5279;42.048;24.638;2023-03-22T06:21:21;97211.19;;;11.07;100.00
10464;BME280;5279;42.048;24.638;2023-03-22T06:23:48;97213.09;;;11.15;100.00
10464;BME280;5279;42.048;24.638;2023-03-22T06:26:15;97212.69;;;11.10;100.00
10464;BME280;5279;42.048;24.638;2023-03-22T06:28:42;97226.78;;;11.10;100.00
10464;BME280;5279;42.048;24.638;2023-03-22T06:31:10;97223.69;;;11.15;100.00
10464;BME280;5279;42.048;24.638;2023-03-22T06:33:37;97233.97;;;11.18;100.00
10464;BME280;5279;42.048;24.638;2023-03-22T06:36:05;97228.69;;;11.18;100.00
10464;BME280;5279;42.048;24.638;2023-03-22T06:38:32;97227.00;;;11.17;100.00
10464;BME280;5279;42.048;24.638;2023-03-22T06:40:59;97238.28;;;11.19;100.00
10464;BME280;5279;42.048;24.638;2023-03-22T06:43:26;97240.25;;;11.17;100.00
10464;BME280;5279;42.048;24.638;2023-03-22T06:45:53;97246.41;;;11.17;100.00
10464;BME280;5279;42.048;24.638;2023-03-22T06:48:23;97251.53;;;11.19;100.00
10464;BME280;5279;42.048;24.638;2023-03-22T06:50:50;97255.50;;;11.15;100.00
10464;BME280;5279;42.048;24.638;2023-03-22T06:53:17;97253.31;;;11.10;100.00
10464;BME280;5279;42.048;24.638;2023-03-22T06:55:43;97254.47;;;11.08;100.00
10464;BME280;5279;42.048;24.638;2023-03-22T06:58:10;97261.06;;;11.04;100.00
10464;BME280;5279;42.048;24.638;2023-03-22T07:00:37;97265.69;;;11.02;100.00
10464;BME280;5279;42.048;24.638;2023-03-22T07:03:05;97268.66;;;10.98;100.00
10464;BME280;5279;42.048;24.638;2023-03-22T07:05:34;97269.22;;;10.84;100.00
10464;BME280;5279;42.048;24.638;2023-03-22T07:08:00;97277.09;;;10.76;100.00
10464;BME280;5279;42.048;24.638;2023-03-22T07:10:28;97280.00;;;10.65;100.00
10464;BME280;5279;42.048;24.638;2023-03-22T07:12:55;97281.44;;;10.60;100.00
10464;BME280;5279;42.048;24.638;2023-03-22T07:15:22;97280.59;;;10.59;100.00
10464;BME280;5279;42.048;24.638;2023-03-22T07:17:49;97289.09;;;10.45;100.00
10464;BME280;5279;42.048;24.638;2023-03-22T07:20:17;97291.03;;;10.43;100.00
10464;BME280;5279;42.048;24.638;2023-03-22T07:22:45;97289.75;;;10.47;100.00
10464;BME280;5279;42.048;24.638;2023-03-22T07:25:12;97286.81;;;10.50;100.00
10464;BME280;5279;42.048;24.638;2023-03-22T07:27:39;97291.81;;;10.53;100.00
10464;BME280;5279;42.048;24.638;2023-03-22T07:30:07;97297.63;;;10.57;100.00
10464;BME280;5279;42.048;24.638;2023-03-22T07:32:34;97299.81;;;10.61;100.00
10464;BME280;5279;42.048;24.638;2023-03-22T07:35:01;97297.56;;;10.66;100.00
10464;BME280;5279;42.048;24.638;2023-03-22T07:37:28;97302.88;;;10.66;100.00
10464;BME280;5279;42.048;24.638;2023-03-22T07:39:56;97305.03;;;10.71;100.00
10464;BME280;5279;42.048;24.638;2023-03-22T07:42:23;97299.28;;;10.75;100.00
10464;BME280;5279;42.048;24.638;2023-03-22T07:44:50;97301.63;;;10.78;100.00
10464;BME280;5279;42.048;24.638;2023-03-22T07:47:17;97297.88;;;10.63;100.00
10464;BME280;5279;42.048;24.638;2023-03-22T07:49:44;97302.41;;;10.53;100.00
10464;BME280;5279;42.048;24.638;2023-03-22T07:52:11;97293.25;;;10.48;100.00
10464;BME280;5279;42.048;24.638;2023-03-22T07:54:38;97296.50;;;10.24;100.00
10464;BME280;5279;42.048;24.638;2023-03-22T07:57:06;97291.28;;;10.32;100.00
10464;BME280;5279;42.048;24.638;2023-03-22T07:59:33;97282.84;;;10.19;100.00
10464;BME280;5279;42.048;24.638;2023-03-22T08:02:00;97275.94;;;10.08;100.00
10464;BME280;5279;42.048;24.638;2023-03-22T08:04:28;97270.34;;;10.11;100.00
10464;BME280;5279;42.048;24.638;2023-03-22T08:06:55;97271.19;;;10.12;100.00
10464;BME280;5279;42.048;24.638;2023-03-22T08:09:24;97264.13;;;10.30;100.00
10464;BME280;5279;42.048;24.638;2023-03-22T08:11:51;97272.50;;;10.43;100.00
10464;BME280;5279;42.048;24.638;2023-03-22T08:14:20;97262.41;;;10.64;100.00
10464;BME280;5279;42.048;24.638;2023-03-22T08:16:47;97265.16;;;10.98;100.00
10464;BME280;5279;42.048;24.638;2023-03-22T08:19:13;97261.09;;;11.37;100.00
10464;BME280;5279;42.048;24.638;2023-03-22T08:21:40;97268.44;;;11.77;100.00
10464;BME280;5279;42.048;24.638;2023-03-22T08:24:08;97272.22;;;12.17;100.00
10464;BME280;5279;42.048;24.638;2023-03-22T08:26:35;97278.91;;;12.45;100.00
10464;BME280;5279;42.048;24.638;2023-03-22T08:29:02;97279.59;;;12.71;100.00
10464;BME280;5279;42.048;24.638;2023-03-22T08:31:30;97293.06;;;12.86;100.00
10464;BME280;5279;42.048;24.638;2023-03-22T08:33:57;97290.25;;;12.87;100.00
10464;BME280;5279;42.048;24.638;2023-03-22T08:36:24;97296.06;;;12.75;100.00
10464;BME280;5279;42.048;24.638;2023-03-22T08:38:51;97306.88;;;12.81;100.00
10464;BME280;5279;42.048;24.638;2023-03-22T08:41:18;97317.50;;;12.97;100.00
10464;BME280;5279;42.048;24.638;2023-03-22T08:43:46;97316.00;;;13.03;100.00
10464;BME280;5279;42.048;24.638;2023-03-22T08:46:13;97321.34;;;13.11;100.00
10464;BME280;5279;42.048;24.638;2023-03-22T08:48:41;97324.84;;;13.11;100.00
10464;BME280;5279;42.048;24.638;2023-03-22T08:51:15;97322.47;;;12.92;100.00
10464;BME280;5279;42.048;24.638;2023-03-22T08:53:42;97324.81;;;12.87;100.00
10464;BME280;5279;42.048;24.638;2023-03-22T08:56:09;97339.44;;;12.75;100.00
10464;BME280;5279;42.048;24.638;2023-03-22T08:58:37;97337.44;;;12.61;100.00
10464;BME280;5279;42.048;24.638;2023-03-22T09:01:04;97338.59;;;12.67;100.00
10464;BME280;5279;42.048;24.638;2023-03-22T09:03:31;97333.59;;;12.64;100.00
10464;BME280;5279;42.048;24.638;2023-03-22T09:06:00;97332.78;;;12.63;100.00
10464;BME280;5279;42.048;24.638;2023-03-22T09:08:26;97329.16;;;12.88;100.00
10464;BME280;5279;42.048;24.638;2023-03-22T09:10:54;97331.47;;;12.99;100.00
10464;BME280;5279;42.048;24.638;2023-03-22T09:13:21;97326.19;;;13.16;100.00
10464;BME280;5279;42.048;24.638;2023-03-22T09:15:49;97328.47;;;13.35;100.00
10464;BME280;5279;42.048;24.638;2023-03-22T09:18:16;97331.16;;;13.19;100.00
10464;BME280;5279;42.048;24.638;2023-03-22T09:20:44;97330.16;;;13.28;100.00
10464;BME280;5279;42.048;24.638;2023-03-22T09:23:13;97328.00;;;13.31;100.00
10464;BME280;5279;42.048;24.638;2023-03-22T09:25:41;97339.09;;;13.51;100.00
10464;BME280;5279;42.048;24.638;2023-03-22T09:28:09;97335.94;;;13.47;100.00
10464;BME280;5279;42.048;24.638;2023-03-22T09:30:36;97340.59;;;13.61;100.00
10464;BME280;5279;42.048;24.638;2023-03-22T09:33:03;97332.41;;;13.71;100.00
10464;BME280;5279;42.048;24.638;2023-03-22T09:35:31;97332.03;;;13.82;100.00
10464;BME280;5279;42.048;24.638;2023-03-22T09:37:58;97339.00;;;13.91;100.00
10464;BME280;5279;42.048;24.638;2023-03-22T09:40:28;97333.34;;;13.86;100.00
10464;BME280;5279;42.048;24.638;2023-03-22T09:42:58;97330.63;;;14.02;100.00
10464;BME280;5279;42.048;24.638;2023-03-22T09:45:31;97334.94;;;14.11;100.00
10464;BME280;5279;42.048;24.638;2023-03-22T09:48:03;97324.91;;;14.21;100.00
10464;BME280;5279;42.048;24.638;2023-03-22T09:50:40;97335.06;;;14.18;100.00
10464;BME280;5279;42.048;24.638;2023-03-22T09:53:12;97331.34;;;14.27;100.00
10464;BME280;5279;42.048;24.638;2023-03-22T09:55:45;97334.66;;;14.29;100.00
10464;BME280;5279;42.048;24.638;2023-03-22T09:58:19;97337.84;;;14.33;100.00
10464;BME280;5279;42.048;24.638;2023-03-22T10:00:55;97332.66;;;14.00;100.00
10464;BME280;5279;42.048;24.638;2023-03-22T10:03:37;97331.63;;;14.01;100.00
10464;BME280;5279;42.048;24.638;2023-03-22T10:06:12;97340.88;;;14.21;100.00
10464;BME280;5279;42.048;24.638;2023-03-22T10:08:49;97333.25;;;14.18;100.00
10464;BME280;5279;42.048;24.638;2023-03-22T10:11:25;97339.91;;;14.14;100.00
10464;BME280;5279;42.048;24.638;2023-03-22T10:14:01;97341.88;;;14.20;100.00
10464;BME280;5279;42.048;24.638;2023-03-22T10:16:33;97327.34;;;14.31;100.00
10464;BME280;5279;42.048;24.638;2023-03-22T10:19:05;97318.00;;;14.43;100.00
10464;BME280;5279;42.048;24.638;2023-03-22T10:21:37;97322.56;;;14.57;100.00
10464;BME280;5279;42.048;24.638;2023-03-22T10:24:09;97313.88;;;14.86;100.00
10464;BME280;5279;42.048;24.638;2023-03-22T10:26:45;97318.44;;;15.38;100.00
10464;BME280;5279;42.048;24.638;2023-03-22T10:29:16;97314.16;;;16.10;100.00
10464;BME280;5279;42.048;24.638;2023-03-22T10:31:47;97313.22;;;16.68;100.00
10464;BME280;5279;42.048;24.638;2023-03-22T10:34:19;97317.63;;;17.18;97.70
10464;BME280;5279;42.048;24.638;2023-03-22T10:36:48;97330.63;;;17.70;78.61
10464;BME280;5279;42.048;24.638;2023-03-22T10:39:25;97316.19;;;17.98;74.79
10464;BME280;5279;42.048;24.638;2023-03-22T10:41:55;97321.13;;;17.67;72.32
10464;BME280;5279;42.048;24.638;2023-03-22T10:44:26;97317.00;;;17.65;69.04
10464;BME280;5279;42.048;24.638;2023-03-22T10:46:55;97319.31;;;17.46;63.45
10464;BME280;5279;42.048;24.638;2023-03-22T10:49:28;97322.09;;;17.32;61.39
10464;BME280;5279;42.048;24.638;2023-03-22T10:52:02;97315.53;;;17.13;62.13
10464;BME280;5279;42.048;24.638;2023-03-22T10:54:30;97314.38;;;16.80;63.51
10464;BME280;5279;42.048;24.638;2023-03-22T10:56:58;97309.91;;;16.66;67.35
10464;BME280;5279;42.048;24.638;2023-03-22T10:59:43;97310.78;;;16.37;69.86
10464;BME280;5279;42.048;24.638;2023-03-22T11:02:16;97312.69;;;16.07;65.44
10464;BME280;5279;42.048;24.638;2023-03-22T11:04:47;97314.34;;;15.94;68.72
10464;BME280;5279;42.048;24.638;2023-03-22T11:07:26;97305.69;;;15.92;63.66
10464;BME280;5279;42.048;24.638;2023-03-22T11:09:58;97307.81;;;15.67;63.74
10464;BME280;5279;42.048;24.638;2023-03-22T11:12:26;97308.03;;;15.43;64.67
10464;BME280;5279;42.048;24.638;2023-03-22T11:14:55;97296.16;;;15.45;66.92
10464;BME280;5279;42.048;24.638;2023-03-22T11:17:23;97289.53;;;15.04;67.78
10464;BME280;5279;42.048;24.638;2023-03-22T11:19:53;97293.69;;;15.06;71.22
10464;BME280;5279;42.048;24.638;2023-03-22T11:22:24;97294.56;;;14.99;72.94
10464;BME280;5279;42.048;24.638;2023-03-22T11:24:54;97299.38;;;15.03;72.26
10464;BME280;5279;42.048;24.638;2023-03-22T11:27:24;97290.25;;;14.98;70.88
10464;BME280;5279;42.048;24.638;2023-03-22T11:29:57;97277.63;;;14.92;71.96
10464;BME280;5279;42.048;24.638;2023-03-22T11:32:26;97280.78;;;14.95;71.41
10464;BME280;5279;42.048;24.638;2023-03-22T11:35:01;97277.75;;;14.98;77.13
10464;BME280;5279;42.048;24.638;2023-03-22T11:37:30;97283.09;;;14.98;74.70
10464;BME280;5279;42.048;24.638;2023-03-22T11:39:59;97265.56;;;14.96;71.29
10464;BME280;5279;42.048;24.638;2023-03-22T11:42:26;97271.63;;;15.12;69.36
10464;BME280;5279;42.048;24.638;2023-03-22T11:44:56;97268.59;;;15.30;64.98
10464;BME280;5279;42.048;24.638;2023-03-22T11:47:25;97260.94;;;15.50;63.64
10464;BME280;5279;42.048;24.638;2023-03-22T11:49:52;97263.03;;;15.69;61.78
10464;BME280;5279;42.048;24.638;2023-03-22T11:52:24;97262.09;;;15.91;61.26
10464;BME280;5279;42.048;24.638;2023-03-22T11:54:52;97263.53;;;16.08;59.81
10464;BME280;5279;42.048;24.638;2023-03-22T11:57:23;97253.00;;;16.21;60.18
10464;BME280;5279;42.048;24.638;2023-03-22T11:59:57;97264.50;;;16.36;54.78
10464;BME280;5279;42.048;24.638;2023-03-22T12:02:28;97265.50;;;16.35;54.69
10464;BME280;5279;42.048;24.638;2023-03-22T12:04:59;97262.31;;;16.25;53.94
10464;BME280;5279;42.048;24.638;2023-03-22T12:07:31;97258.63;;;16.26;53.28
10464;BME280;5279;42.048;24.638;2023-03-22T12:10:04;97260.50;;;16.26;53.83
10464;BME280;5279;42.048;24.638;2023-03-22T12:12:40;97256.94;;;16.04;54.38
10464;BME280;5279;42.048;24.638;2023-03-22T12:15:17;97251.59;;;16.04;53.87
10464;BME280;5279;42.048;24.638;2023-03-22T12:17:50;97260.03;;;16.22;55.48
10464;BME280;5279;42.048;24.638;2023-03-22T12:20:24;97258.38;;;16.21;56.36
10464;BME280;5279;42.048;24.638;2023-03-22T12:22:55;97248.97;;;16.25;57.79
10464;BME280;5279;42.048;24.638;2023-03-22T12:25:26;97251.63;;;16.25;61.38
10464;BME280;5279;42.048;24.638;2023-03-22T12:27:57;97256.34;;;16.45;66.78
10464;BME280;5279;42.048;24.638;2023-03-22T12:30:28;97248.31;;;16.45;70.97
10464;BME280;5279;42.048;24.638;2023-03-22T12:33:00;97252.78;;;16.37;75.98
10464;BME280;5279;42.048;24.638;2023-03-22T12:35:30;97255.47;;;16.37;75.78
10464;BME280;5279;42.048;24.638;2023-03-22T12:38:06;97257.69;;;16.34;76.54
10464;BME280;5279;42.048;24.638;2023-03-22T12:40:36;97254.91;;;15.92;80.98
10464;BME280;5279;42.048;24.638;2023-03-22T12:43:09;97259.88;;;16.09;82.16
10464;BME280;5279;42.048;24.638;2023-03-22T12:45:43;97259.00;;;16.23;79.54
10464;BME280;5279;42.048;24.638;2023-03-22T12:48:16;97257.09;;;16.38;81.71
10464;BME280;5279;42.048;24.638;2023-03-22T12:50:47;97256.09;;;16.39;78.24
10464;BME280;5279;42.048;24.638;2023-03-22T12:53:17;97265.88;;;16.32;78.90
10464;BME280;5279;42.048;24.638;2023-03-22T12:55:46;97259.16;;;16.36;72.41
10464;BME280;5279;42.048;24.638;2023-03-22T12:58:16;97250.28;;;16.36;77.70
10464;BME280;5279;42.048;24.638;2023-03-22T13:00:47;97264.88;;;16.33;77.36
10464;BME280;5279;42.048;24.638;2023-03-22T13:03:22;97264.09;;;16.18;77.15
10464;BME280;5279;42.048;24.638;2023-03-22T13:05:59;97253.22;;;16.05;76.14
10464;BME280;5279;42.048;24.638;2023-03-22T13:11:33;97253.84;;;15.86;75.06
10464;BME280;5279;42.048;24.638;2023-03-22T13:14:00;97258.00;;;15.74;78.39